Time;durP1;ratioP1;P1;durP2;ratioP2;P2;SDS_P1;SDS_P2;PMS_P1;PMS_P2;Temp;Humidity;BMP_temperature;BMP_pressure;BME280_temperature;BME280_humidity;BME280_pressure;Samples;Min_cycle;Max_cycle;Signal;HPM_P1;HPM_P2
2021/07/09 00:01:16;;;;;;;3.90;2.50;;;;;;;18.60;68.37;101090.73;1726170;82;20956;-77
2021/07/09 00:03:43;;;;;;;5.20;2.60;;;;;;;18.56;68.44;101088.55;1720344;82;20996;-77
2021/07/09 00:06:12;;;;;;;5.62;2.80;;;;;;;18.54;68.45;101088.70;1720825;82;21512;-77
2021/07/09 00:08:39;;;;;;;6.42;2.80;;;;;;;18.49;68.43;101082.97;1726184;82;21052;-77
2021/07/09 00:11:06;;;;;;;2.98;2.55;;;;;;;18.46;68.51;101080.61;1720140;82;21036;-77
2021/07/09 00:13:33;;;;;;;7.10;2.90;;;;;;;18.45;68.69;101075.42;1720450;82;21004;-78
2021/07/09 00:15:59;;;;;;;4.85;2.85;;;;;;;18.44;68.77;101078.59;1720124;83;21039;-78
2021/07/09 00:18:25;;;;;;;5.10;2.80;;;;;;;18.41;68.78;101072.70;1731228;82;21433;-77
2021/07/09 00:20:52;;;;;;;7.08;3.08;;;;;;;18.35;68.90;101070.66;1748787;81;21472;-77
2021/07/09 00:23:19;;;;;;;5.85;3.00;;;;;;;18.31;69.00;101078.14;1749807;80;21028;-77
2021/07/09 00:25:46;;;;;;;5.90;2.95;;;;;;;18.29;69.02;101072.95;1736787;82;21040;-77
2021/07/09 00:28:12;;;;;;;4.90;2.90;;;;;;;18.26;69.09;101069.75;1721327;82;21040;-77
2021/07/09 00:30:40;;;;;;;4.78;2.90;;;;;;;18.24;69.25;101071.75;1720308;82;22677;-77
2021/07/09 00:33:06;;;;;;;6.22;2.77;;;;;;;18.18;69.46;101067.01;1720020;83;20969;-77
2021/07/09 00:35:32;;;;;;;6.47;2.90;;;;;;;18.14;69.66;101069.62;1736657;82;21111;-77
2021/07/09 00:37:59;;;;;;;8.53;2.90;;;;;;;18.08;69.80;101072.44;1722897;82;21075;-77
2021/07/09 00:40:25;;;;;;;6.28;3.22;;;;;;;18.05;70.01;101066.54;1728162;82;21051;-77
2021/07/09 00:42:52;;;;;;;3.85;2.95;;;;;;;18.04;70.10;101063.03;1720096;83;22884;-78
2021/07/09 00:45:18;;;;;;;5.72;2.70;;;;;;;18.05;70.08;101058.05;1725936;82;20946;-77
2021/07/09 00:47:47;;;;;;;4.80;2.80;;;;;;;18.05;70.12;101057.18;1749844;82;20950;-77
2021/07/09 00:50:14;;;;;;;4.33;2.77;;;;;;;18.00;70.34;101059.83;1723885;82;20984;-78
2021/07/09 00:52:41;;;;;;;4.30;2.75;;;;;;;18.01;70.40;101060.67;1725958;82;21530;-78
2021/07/09 00:55:08;;;;;;;4.78;2.70;;;;;;;17.97;70.55;101057.48;1748618;82;21847;-77
2021/07/09 00:57:37;;;;;;;5.33;2.70;;;;;;;17.95;70.65;101051.91;1726370;82;21420;-78
2021/07/09 01:00:07;;;;;;;11.05;3.25;;;;;;;17.94;70.82;101052.41;1736223;82;20985;-77
2021/07/09 01:02:33;;;;;;;4.33;2.90;;;;;;;17.90;70.96;101045.70;1744546;80;21013;-77
2021/07/09 01:04:59;;;;;;;5.83;2.80;;;;;;;17.88;71.11;101045.03;1749702;82;21087;-77
2021/07/09 01:07:28;;;;;;;4.55;2.87;;;;;;;17.89;71.15;101046.70;1748915;82;20930;-77
2021/07/09 01:09:54;;;;;;;5.45;3.02;;;;;;;17.90;71.31;101051.55;1748068;82;21389;-78
2021/07/09 01:12:23;;;;;;;4.10;2.77;;;;;;;17.86;71.40;101051.52;1747944;82;20977;-78
2021/07/09 01:14:50;;;;;;;3.65;2.65;;;;;;;17.86;71.47;101055.53;1693766;83;21302;-77
2021/07/09 01:17:18;;;;;;;5.70;2.90;;;;;;;17.88;71.52;101057.55;1720309;83;20977;-78
2021/07/09 01:19:48;;;;;;;5.53;2.85;;;;;;;17.86;71.48;101053.70;1718351;82;22207;-77
2021/07/09 01:22:15;;;;;;;5.45;2.83;;;;;;;17.86;71.46;101051.52;1741746;82;20953;-77
2021/07/09 01:24:42;;;;;;;6.30;3.00;;;;;;;17.88;71.43;101056.22;1724173;82;21048;-78
2021/07/09 01:27:09;;;;;;;5.03;3.27;;;;;;;17.91;71.31;101053.23;1749965;80;20993;-78
2021/07/09 01:29:35;;;;;;;5.10;2.70;;;;;;;17.92;71.30;101054.91;1747877;82;20961;-78
2021/07/09 01:32:02;;;;;;;4.28;3.10;;;;;;;17.92;71.33;101057.08;1736275;82;21683;-78
2021/07/09 01:34:28;;;;;;;7.40;3.40;;;;;;;17.90;71.33;101060.41;1720438;82;21040;-77
2021/07/09 01:37:14;;;;;;;5.50;3.27;;;;;;;17.86;71.36;101057.70;1720354;82;20957;-77
2021/07/09 01:39:45;;;;;;;7.47;3.37;;;;;;;17.83;71.45;101054.48;1721665;82;21008;-77
2021/07/09 01:42:12;;;;;;;4.05;3.40;;;;;;;17.79;71.58;101057.13;1721338;82;21005;-78
2021/07/09 01:44:39;;;;;;;5.87;3.52;;;;;;;17.76;71.66;101056.07;1720285;82;21730;-78
2021/07/09 01:47:07;;;;;;;5.80;3.17;;;;;;;17.80;71.69;101060.14;1693804;82;21020;-77
2021/07/09 01:50:00;;;;;;;4.17;3.30;;;;;;;17.84;71.71;101050.31;1693828;83;20948;-78
2021/07/09 01:52:27;;;;;;;5.25;3.10;;;;;;;17.83;71.83;101046.47;1725983;82;20996;-78
2021/07/09 01:54:55;;;;;;;7.12;2.98;;;;;;;17.82;71.87;101052.30;1750009;82;21437;-77
2021/07/09 01:57:21;;;;;;;4.87;3.00;;;;;;;17.83;71.82;101053.14;1730948;82;22202;-78
2021/07/09 01:59:48;;;;;;;6.33;3.30;;;;;;;17.82;71.81;101049.63;1737597;82;20989;-77
2021/07/09 02:02:14;;;;;;;4.47;3.42;;;;;;;17.81;71.76;101051.97;1729262;82;21064;-77
2021/07/09 02:04:50;;;;;;;5.08;3.42;;;;;;;17.79;71.64;101044.60;1720222;83;21478;-77
2021/07/09 02:07:17;;;;;;;5.00;3.12;;;;;;;17.79;71.62;101049.11;1693578;83;20976;-78
2021/07/09 02:09:47;;;;;;;5.00;2.95;;;;;;;17.73;71.84;101039.86;1720114;83;21848;-78
2021/07/09 02:12:16;;;;;;;3.80;2.72;;;;;;;17.66;72.04;101044.08;1721321;82;20966;-78
2021/07/09 02:14:42;;;;;;;4.75;3.10;;;;;;;17.62;72.23;101050.23;1720110;83;20984;-77
2021/07/09 02:17:11;;;;;;;5.65;3.20;;;;;;;17.63;72.34;101046.57;1721066;82;21486;-78
2021/07/09 02:19:38;;;;;;;5.60;3.10;;;;;;;17.64;72.46;101054.09;1720390;82;21092;-77
2021/07/09 02:22:08;;;;;;;4.78;3.10;;;;;;;17.64;72.50;101047.41;1721888;82;22663;-78
2021/07/09 02:24:35;;;;;;;6.47;3.40;;;;;;;17.64;72.49;101050.92;1720093;82;21412;-77
2021/07/09 02:27:03;;;;;;;6.20;3.83;;;;;;;17.62;72.42;101048.06;1720400;83;21009;-78
2021/07/09 02:29:30;;;;;;;6.00;3.60;;;;;;;17.61;72.38;101046.38;1720324;82;21500;-77
2021/07/09 02:32:02;;;;;;;5.55;3.30;;;;;;;17.62;72.32;101049.40;1730109;82;20959;-77
2021/07/09 02:34:29;;;;;;;7.97;3.40;;;;;;;17.60;72.52;101050.89;1748912;82;21815;-77
2021/07/09 02:36:56;;;;;;;5.42;3.70;;;;;;;17.56;72.74;101044.16;1749945;82;21067;-78
2021/07/09 02:39:27;;;;;;;7.37;3.35;;;;;;;17.46;72.89;101048.72;1708660;82;21092;-78
2021/07/09 02:41:53;;;;;;;5.35;3.40;;;;;;;17.40;73.10;101052.84;1730251;82;21055;-78
2021/07/09 02:44:21;;;;;;;5.83;3.08;;;;;;;17.44;73.19;101060.89;1720451;83;21640;-78
2021/07/09 02:46:50;;;;;;;6.50;3.58;;;;;;;17.44;73.31;101060.05;1720086;82;22571;-77
2021/07/09 02:49:17;;;;;;;6.05;3.30;;;;;;;17.48;73.37;101056.11;1728684;82;21485;-78
2021/07/09 02:51:44;;;;;;;5.83;3.35;;;;;;;17.51;73.59;101053.13;1749296;82;20961;-78
2021/07/09 02:54:10;;;;;;;4.10;3.30;;;;;;;17.51;73.72;101050.45;1750110;82;21028;-77
2021/07/09 02:56:37;;;;;;;4.65;3.22;;;;;;;17.55;73.78;101051.82;1750059;82;20950;-77
2021/07/09 02:59:03;;;;;;;5.47;2.98;;;;;;;17.59;73.90;101051.05;1725916;82;22784;-78
2021/07/09 03:01:31;;;;;;;8.28;3.20;;;;;;;17.59;73.96;101051.88;1720029;83;21049;-78
2021/07/09 03:03:58;;;;;;;7.53;3.50;;;;;;;17.62;74.07;101052.07;1731493;82;20958;-77
2021/07/09 03:06:24;;;;;;;4.97;3.25;;;;;;;17.65;74.13;101059.27;1749340;82;20993;-78
2021/07/09 03:08:52;;;;;;;4.40;3.40;;;;;;;17.68;74.16;101063.50;1720242;82;20996;-78
2021/07/09 03:11:19;;;;;;;4.72;3.22;;;;;;;17.71;74.22;101062.72;1720537;82;22163;-78
2021/07/09 03:13:46;;;;;;;5.47;3.30;;;;;;;17.77;74.21;101059.95;1722485;82;21412;-78
2021/07/09 03:16:13;;;;;;;5.50;3.60;;;;;;;17.83;74.16;101052.64;1720379;83;21489;-77
2021/07/09 03:18:39;;;;;;;5.28;3.25;;;;;;;17.91;74.12;101059.41;1703507;82;21060;-77
2021/07/09 03:21:05;;;;;;;6.03;3.47;;;;;;;18.00;74.12;101063.00;1719127;82;20973;-77
2021/07/09 03:23:32;;;;;;;8.60;3.77;;;;;;;18.06;74.18;101061.06;1707596;82;22828;-78
2021/07/09 03:26:00;;;;;;;4.87;3.90;;;;;;;18.11;74.23;101058.75;1728349;82;20941;-78
2021/07/09 03:28:27;;;;;;;6.33;4.97;;;;;;;18.17;74.25;101056.81;1735218;82;21424;-78
2021/07/09 03:30:54;;;;;;;10.63;4.17;;;;;;;18.25;74.14;101060.89;1710338;82;21045;-78
2021/07/09 03:33:21;;;;;;;5.05;3.77;;;;;;;18.35;74.32;101059.47;1708663;82;21032;-77
2021/07/09 03:35:47;;;;;;;6.80;3.83;;;;;;;18.41;74.42;101062.00;1733727;82;22698;-78
2021/07/09 03:38:14;;;;;;;4.87;3.50;;;;;;;18.47;74.40;101066.73;1736086;82;21130;-77
2021/07/09 03:40:41;;;;;;;4.75;3.20;;;;;;;18.55;74.43;101066.80;1717435;82;21092;-78
2021/07/09 03:43:09;;;;;;;5.92;3.65;;;;;;;18.62;74.44;101062.48;1735156;82;20942;-78
2021/07/09 03:45:35;;;;;;;6.08;3.10;;;;;;;18.72;74.49;101065.08;1734989;82;21425;-77
2021/07/09 03:48:05;;;;;;;4.53;3.40;;;;;;;18.79;74.45;101066.97;1735733;82;20986;-77
2021/07/09 03:50:32;;;;;;;5.50;4.17;;;;;;;18.88;74.46;101063.34;1716197;82;21009;-78
2021/07/09 03:52:58;;;;;;;7.50;4.42;;;;;;;18.96;74.45;101069.25;1708891;82;20957;-78
2021/07/09 03:55:25;;;;;;;7.80;4.37;;;;;;;19.07;74.21;101068.13;1707954;82;20949;-77
2021/07/09 03:57:51;;;;;;;6.28;4.37;;;;;;;19.19;73.94;101068.18;1730104;82;21064;-78
2021/07/09 04:00:18;;;;;;;7.33;4.20;;;;;;;19.31;73.91;101069.59;1706784;82;22176;-77
2021/07/09 04:02:45;;;;;;;9.73;4.90;;;;;;;19.44;73.77;101071.30;1695177;82;21060;-77
2021/07/09 04:05:13;;;;;;;6.40;4.17;;;;;;;19.57;73.07;101071.36;1733944;82;20981;-77
2021/07/09 04:07:39;;;;;;;5.00;3.87;;;;;;;19.72;72.53;101069.23;1706527;84;20965;-78
2021/07/09 04:10:07;;;;;;;6.30;3.77;;;;;;;19.87;71.75;101072.09;1706658;82;21449;-78
2021/07/09 04:12:35;;;;;;;8.98;3.60;;;;;;;20.01;70.75;101063.92;1706568;84;20990;-78
2021/07/09 04:15:05;;;;;;;5.92;4.28;;;;;;;20.17;69.87;101071.12;1707512;82;20965;-78
2021/07/09 04:17:33;;;;;;;7.05;3.20;;;;;;;20.32;69.22;101065.43;1708368;82;21033;-77
2021/07/09 04:19:59;;;;;;;4.35;2.90;;;;;;;20.46;68.71;101059.91;1706647;82;21243;-77
2021/07/09 04:22:26;;;;;;;4.47;2.80;;;;;;;20.60;68.15;101063.26;1710545;82;21068;-77
2021/07/09 04:24:52;;;;;;;5.40;3.35;;;;;;;20.77;67.63;101061.39;1727373;82;21813;-78
2021/07/09 04:27:19;;;;;;;4.62;2.92;;;;;;;20.90;67.20;101060.34;1726909;82;20934;-77
2021/07/09 04:29:46;;;;;;;5.92;2.85;;;;;;;21.03;66.82;101061.96;1714541;82;20949;-78
2021/07/09 04:32:13;;;;;;;7.05;2.75;;;;;;;21.12;66.08;101056.05;1715420;82;21004;-77
2021/07/09 04:34:39;;;;;;;3.80;2.72;;;;;;;21.25;65.47;101060.90;1714890;82;21419;-77
2021/07/09 04:37:09;;;;;;;6.97;2.70;;;;;;;21.35;64.98;101056.17;1716893;82;21724;-78
2021/07/09 04:39:37;;;;;;;4.95;2.70;;;;;;;21.50;64.48;101057.59;1740623;82;20946;-78
2021/07/09 04:42:04;;;;;;;7.62;2.60;;;;;;;21.61;64.67;101063.41;1686603;83;21056;-78
2021/07/09 04:44:33;;;;;;;4.65;2.40;;;;;;;21.70;64.12;101053.45;1714414;82;21722;-77
2021/07/09 04:46:59;;;;;;;5.08;2.60;;;;;;;21.78;63.07;101054.73;1714464;82;20969;-77
2021/07/09 04:49:25;;;;;;;4.78;2.55;;;;;;;21.86;62.76;101049.31;1728836;82;21835;-77
2021/07/09 04:51:53;;;;;;;6.40;2.52;;;;;;;21.94;62.55;101051.95;1714999;82;21467;-77
2021/07/09 04:54:20;;;;;;;5.45;2.72;;;;;;;22.00;61.83;101043.17;1714876;82;20957;-77
2021/07/09 04:56:47;;;;;;;5.67;2.77;;;;;;;22.06;61.66;101048.32;1714390;83;20966;-78
2021/07/09 04:59:14;;;;;;;8.95;2.55;;;;;;;22.16;61.53;101041.38;1717156;82;21008;-77
2021/07/09 05:01:40;;;;;;;4.92;2.62;;;;;;;22.24;61.05;101052.08;1714695;82;22217;-77
2021/07/09 05:04:07;;;;;;;5.22;2.83;;;;;;;22.31;60.81;101040.92;1714617;83;20958;-77
2021/07/09 05:06:35;;;;;;;6.03;2.72;;;;;;;22.39;60.30;101045.37;1715375;82;21428;-77
2021/07/09 05:09:04;;;;;;;6.53;2.52;;;;;;;22.46;60.19;101049.84;1716013;82;21385;-77
2021/07/09 05:11:34;;;;;;;5.37;2.50;;;;;;;22.52;59.58;101050.98;1714585;82;21499;-77
2021/07/09 05:14:02;;;;;;;5.92;2.70;;;;;;;22.56;59.49;101047.73;1714391;83;22692;-77
2021/07/09 05:16:29;;;;;;;5.92;2.65;;;;;;;22.66;59.53;101050.15;1714373;82;20993;-77
2021/07/09 05:18:56;;;;;;;4.25;2.77;;;;;;;22.73;59.00;101052.44;1722667;82;20973;-77
2021/07/09 05:21:25;;;;;;;4.70;2.25;;;;;;;22.80;58.46;101049.86;1714639;82;21053;-77
2021/07/09 05:23:52;;;;;;;12.07;2.70;;;;;;;22.87;57.91;101053.48;1720770;82;20965;-78
2021/07/09 05:26:18;;;;;;;9.30;2.90;;;;;;;22.93;57.35;101057.31;1720439;82;21757;-78
2021/07/09 05:28:45;;;;;;;5.12;2.58;;;;;;;22.97;56.93;101056.77;1731323;82;21393;-78
2021/07/09 05:31:12;;;;;;;9.88;2.90;;;;;;;23.03;56.55;101059.21;1735532;82;20997;-78
2021/07/09 05:33:38;;;;;;;7.75;2.50;;;;;;;23.10;56.58;101062.84;1720878;82;20961;-79
2021/07/09 05:36:05;;;;;;;7.53;2.60;;;;;;;23.15;56.89;101053.66;1749869;82;21344;-78
2021/07/09 05:38:31;;;;;;;4.55;2.65;;;;;;;23.21;56.79;101060.18;1728443;82;22788;-79
2021/07/09 05:40:58;;;;;;;3.87;2.50;;;;;;;23.29;56.67;101062.27;1721043;82;20949;-79
2021/07/09 05:43:24;;;;;;;5.35;2.77;;;;;;;23.36;56.48;101060.50;1720344;83;21056;-78
2021/07/09 05:45:51;;;;;;;4.97;2.65;;;;;;;23.44;56.00;101059.52;1720905;82;21500;-78
2021/07/09 05:48:17;;;;;;;4.92;2.45;;;;;;;23.50;56.00;101061.47;1725176;82;22075;-78
2021/07/09 05:50:45;;;;;;;6.83;2.62;;;;;;;23.57;55.96;101062.39;1726029;82;22564;-78
2021/07/09 05:53:11;;;;;;;6.90;2.77;;;;;;;23.66;55.72;101060.45;1748382;82;21423;-77
2021/07/09 05:55:38;;;;;;;5.97;2.47;;;;;;;23.75;54.29;101062.01;1729129;82;21060;-76
2021/07/09 05:58:04;;;;;;;5.75;2.70;;;;;;;23.83;54.18;101059.67;1729309;82;21067;-76
2021/07/09 06:00:31;;;;;;;4.35;2.60;;;;;;;23.91;53.06;101056.86;1719653;82;21083;-76
2021/07/09 06:02:57;;;;;;;4.85;2.52;;;;;;;23.97;52.41;101056.94;1718911;83;21804;-77
2021/07/09 06:05:23;;;;;;;6.15;2.62;;;;;;;24.02;52.53;101055.51;1745045;82;21455;-77
2021/07/09 06:07:50;;;;;;;4.80;3.10;;;;;;;24.04;51.33;101050.77;1744330;82;21020;-76
2021/07/09 06:10:17;;;;;;;5.17;3.10;;;;;;;24.10;51.52;101051.33;1746568;82;21032;-76
2021/07/09 06:12:45;;;;;;;7.72;3.00;;;;;;;24.17;51.93;101053.59;1736059;82;21052;-80
2021/07/09 06:15:12;;;;;;;8.85;3.25;;;;;;;24.26;51.93;101056.47;1729447;82;22657;-76
2021/07/09 06:17:39;;;;;;;4.17;2.98;;;;;;;24.35;51.88;101047.75;1737355;82;21039;-77
2021/07/09 06:20:07;;;;;;;4.75;2.70;;;;;;;24.41;51.51;101049.12;1725494;82;21587;-76
2021/07/09 06:22:34;;;;;;;5.17;2.92;;;;;;;24.49;51.24;101051.69;1720617;82;21060;-79
2021/07/09 06:25:00;;;;;;;6.47;2.65;;;;;;;24.51;50.92;101051.00;1739191;82;21020;-79
2021/07/09 06:27:27;;;;;;;8.38;2.60;;;;;;;24.58;50.95;101053.73;1718770;83;22265;-78
2021/07/09 06:29:53;;;;;;;7.37;2.80;;;;;;;24.65;50.45;101040.28;1718646;83;20993;-78
2021/07/09 06:32:20;;;;;;;7.67;2.70;;;;;;;24.75;50.67;101044.81;1743269;82;21331;-79
2021/07/09 06:34:46;;;;;;;9.58;6.95;;;;;;;24.82;50.11;101048.39;1725666;82;21319;-75
2021/07/09 06:37:13;;;;;;;6.35;3.10;;;;;;;24.91;50.46;101045.02;1718603;83;21027;-80
2021/07/09 06:39:40;;;;;;;6.15;2.87;;;;;;;24.99;49.94;101042.96;1718739;82;22057;-80
2021/07/09 06:42:06;;;;;;;6.20;3.20;;;;;;;25.05;49.63;101048.96;1725795;82;21457;-82
2021/07/09 06:44:33;;;;;;;6.62;2.80;;;;;;;25.10;49.86;101042.45;1701549;82;21021;-86
2021/07/09 06:46:59;;;;;;;5.60;2.90;;;;;;;25.18;49.34;101046.00;1721389;82;21377;-79
2021/07/09 06:49:26;;;;;;;4.12;2.65;;;;;;;25.25;48.92;101049.05;1734174;82;20998;-79
2021/07/09 06:51:52;;;;;;;4.78;2.70;;;;;;;25.33;49.18;101046.18;1726563;82;22208;-80
2021/07/09 06:54:19;;;;;;;5.42;2.47;;;;;;;25.45;47.50;101045.59;1728584;82;20947;-78
2021/07/09 06:56:46;;;;;;;9.38;2.65;;;;;;;25.55;47.11;101046.87;1722024;82;20969;-80
2021/07/09 06:59:12;;;;;;;3.87;2.62;;;;;;;25.63;46.54;101046.69;1729041;82;20997;-80
2021/07/09 07:01:39;;;;;;;5.58;2.90;;;;;;;25.71;46.68;101042.17;1734719;82;21032;-81
2021/07/09 07:04:07;;;;;;;8.40;6.37;;;;;;;25.77;46.08;101042.68;1733301;82;21802;-80
2021/07/09 07:06:33;;;;;;;6.42;3.05;;;;;;;25.75;46.59;101048.83;1741846;82;21001;-80
2021/07/09 07:09:00;;;;;;;7.92;3.47;;;;;;;25.83;46.62;101049.47;1726278;82;21562;-79
2021/07/09 07:11:26;;;;;;;5.47;2.75;;;;;;;25.93;46.79;101046.36;1727531;82;20957;-79
2021/07/09 07:13:54;;;;;;;11.88;3.30;;;;;;;26.05;46.40;101043.87;1719677;82;21004;-80
2021/07/09 07:16:20;;;;;;;7.20;3.25;;;;;;;26.16;45.74;101045.46;1719183;83;21788;-80
2021/07/09 07:18:47;;;;;;;4.58;3.27;;;;;;;26.18;45.17;101046.08;1725238;82;20980;-80
2021/07/09 07:21:14;;;;;;;12.78;3.22;;;;;;;26.15;45.59;101041.09;1727922;82;21005;-80
2021/07/09 07:23:41;;;;;;;7.40;3.02;;;;;;;26.22;45.90;101043.78;1737852;82;21507;-75
2021/07/09 07:26:07;;;;;;;5.75;3.02;;;;;;;26.29;45.27;101042.44;1730398;80;21016;-77
2021/07/09 07:28:34;;;;;;;4.58;3.10;;;;;;;26.33;44.95;101038.25;1726148;82;21820;-78
2021/07/09 07:31:00;;;;;;;6.28;3.27;;;;;;;26.33;44.30;101032.84;1720096;83;21027;-78
2021/07/09 07:33:27;;;;;;;11.93;3.27;;;;;;;26.28;44.33;101031.30;1728292;82;20965;-76
2021/07/09 07:35:54;;;;;;;6.50;2.90;;;;;;;26.31;44.56;101030.86;1739123;82;21071;-79
2021/07/09 07:38:21;;;;;;;6.47;2.77;;;;;;;26.35;44.92;101024.00;1737919;82;21059;-78
2021/07/09 07:40:47;;;;;;;7.90;3.00;;;;;;;26.39;44.82;101021.20;1744148;82;22811;-78
2021/07/09 07:43:15;;;;;;;7.10;2.90;;;;;;;26.47;44.95;101016.93;1743486;82;21455;-78
2021/07/09 07:45:42;;;;;;;6.33;2.87;;;;;;;26.57;44.75;101019.20;1719318;82;21057;-78
2021/07/09 07:48:08;;;;;;;8.95;3.40;;;;;;;26.70;44.84;101013.75;1725992;82;21115;-78
2021/07/09 07:50:35;;;;;;;6.55;3.37;;;;;;;26.77;44.41;101013.22;1734969;82;21035;-79
2021/07/09 07:53:02;;;;;;;7.15;3.52;;;;;;;26.84;43.37;101013.22;1746173;81;22231;-79
2021/07/09 07:55:28;;;;;;;10.23;3.10;;;;;;;26.84;43.71;101018.63;1736679;82;21396;-77
2021/07/09 07:57:55;;;;;;;8.78;3.17;;;;;;;26.87;43.41;101016.31;1734927;82;20996;-78
2021/07/09 08:00:22;;;;;;;8.10;3.60;;;;;;;26.92;43.40;101012.42;1724482;82;21036;-77
2021/07/09 08:02:48;;;;;;;6.72;2.90;;;;;;;27.05;43.76;101018.38;1705604;82;20964;-76
2021/07/09 08:05:15;;;;;;;8.73;2.90;;;;;;;27.18;42.57;101012.89;1743369;82;22252;-76
2021/07/09 08:07:42;;;;;;;6.50;2.90;;;;;;;27.28;41.79;101006.48;1719927;83;20981;-76
2021/07/09 08:10:10;;;;;;;6.90;3.00;;;;;;;27.29;41.97;101012.20;1722763;82;20961;-77
2021/07/09 08:12:37;;;;;;;6.58;2.95;;;;;;;27.33;41.99;101008.03;1740798;82;20977;-76
2021/07/09 08:15:06;;;;;;;7.00;3.30;;;;;;;27.45;42.58;101007.34;1747332;80;20937;-77
2021/07/09 08:17:34;;;;;;;7.47;3.08;;;;;;;27.57;42.33;101000.16;1722016;82;21040;-86
2021/07/09 08:20:01;;;;;;;5.60;3.12;;;;;;;27.70;42.77;101000.13;1722275;82;21031;-79
2021/07/09 08:22:27;;;;;;;4.78;2.40;;;;;;;27.80;41.24;100995.05;1725813;82;20952;-78
2021/07/09 08:24:53;;;;;;;6.85;2.77;;;;;;;27.81;40.62;100994.52;1724399;82;21182;-78
2021/07/09 08:27:20;;;;;;;8.50;3.05;;;;;;;27.80;40.60;100994.21;1734623;82;21080;-78
2021/07/09 08:29:46;;;;;;;17.95;5.17;;;;;;;27.83;42.04;100993.23;1729953;82;22188;-80
2021/07/09 08:32:13;;;;;;;10.18;3.60;;;;;;;27.96;41.46;100988.22;1732204;82;21476;-77
2021/07/09 08:34:41;;;;;;;9.65;2.95;;;;;;;28.12;41.58;100986.31;1725397;82;21044;-80
2021/07/09 08:37:08;;;;;;;5.58;2.58;;;;;;;28.30;41.17;100983.38;1728489;82;21031;-80
2021/07/09 08:39:35;;;;;;;4.83;3.20;;;;;;;28.45;40.03;100983.83;1718776;83;21019;-84
2021/07/09 08:42:02;;;;;;;7.87;2.70;;;;;;;28.57;39.55;100985.27;1741977;82;21842;-79
2021/07/09 08:44:29;;;;;;;4.45;2.42;;;;;;;28.70;39.93;100983.78;1720335;82;21019;-81
2021/07/09 08:46:57;;;;;;;5.30;2.60;;;;;;;28.82;39.16;100983.33;1734556;82;20965;-82
2021/07/09 08:49:25;;;;;;;9.43;2.90;;;;;;;28.95;39.02;100988.66;1721694;82;21048;-81
2021/07/09 08:51:52;;;;;;;6.15;2.98;;;;;;;29.00;38.51;100984.70;1748602;82;21024;-81
2021/07/09 08:54:19;;;;;;;9.80;2.87;;;;;;;29.06;39.54;100980.25;1723975;82;22181;-83
2021/07/09 08:56:46;;;;;;;17.12;3.15;;;;;;;29.16;39.53;100979.71;1718257;83;21079;-83
2021/07/09 08:59:12;;;;;;;10.20;3.00;;;;;;;29.24;39.00;100978.00;1727396;82;21079;-79
2021/07/09 09:01:56;;;;;;;7.42;3.02;;;;;;;29.30;38.35;100979.28;1730092;82;21318;-84
2021/07/09 09:04:34;;;;;;;10.05;3.00;;;;;;;29.39;38.44;100979.80;1722911;82;21000;-79
2021/07/09 09:07:11;;;;;;;7.40;2.75;;;;;;;29.40;37.80;100977.37;1741621;82;21844;-77
2021/07/09 09:09:40;;;;;;;3.95;3.05;;;;;;;29.37;38.47;100979.20;1718726;82;21008;-78
2021/07/09 09:12:15;;;;;;;7.08;2.98;;;;;;;29.37;38.84;100977.84;1719593;82;21407;-79
2021/07/09 09:14:47;;;;;;;6.92;3.33;;;;;;;29.46;38.78;100971.55;1720056;82;21060;-82
2021/07/09 09:17:32;;;;;;;5.50;3.05;;;;;;;29.51;36.52;100968.97;1721565;80;20957;-82
2021/07/09 09:20:14;;;;;;;44.77;11.20;;;;;;;29.50;38.06;100975.48;1718865;82;22294;-82
2021/07/09 09:22:52;;;;;;;11.57;5.30;;;;;;;29.51;37.16;100976.60;1747843;82;21004;-82
2021/07/09 09:25:24;;;;;;;6.42;3.05;;;;;;;29.67;37.21;100959.31;1719188;83;21095;-83
2021/07/09 09:28:06;;;;;;;5.15;3.15;;;;;;;29.67;37.21;100959.31;1720586;83;21040;-82
2021/07/09 09:30:33;;;;;;;10.32;3.42;;;;;;;29.80;35.61;100955.84;1720255;83;21060;-82
2021/07/09 09:33:03;;;;;;;11.75;3.25;;;;;;;29.97;36.65;100954.63;1720700;82;22837;-83
2021/07/09 09:35:41;;;;;;;6.62;3.35;;;;;;;29.97;36.65;100954.63;1720104;82;20945;-83
2021/07/09 09:38:13;;;;;;;10.53;5.83;;;;;;;30.10;35.30;100950.86;1729827;82;20945;-83
2021/07/09 09:40:43;;;;;;;6.17;3.40;;;;;;;30.10;35.30;100950.86;1744754;82;20965;-83
2021/07/09 09:43:17;;;;;;;9.05;3.40;;;;;;;30.20;36.25;100946.47;1750102;82;20989;-83
2021/07/09 09:45:44;;;;;;;5.08;3.00;;;;;;;30.26;34.96;100946.06;1722755;82;22493;-83
2021/07/09 09:48:13;;;;;;;5.15;3.20;;;;;;;30.20;35.30;100946.47;1749944;80;21052;-83
2021/07/09 09:50:48;;;;;;;4.53;2.90;;;;;;;30.15;35.30;100945.55;1730825;82;20949;-83
2021/07/09 09:53:16;;;;;;;4.90;2.90;;;;;;;30.24;35.96;100940.57;1720219;82;21444;-83
2021/07/09 09:55:43;;;;;;;8.68;3.00;;;;;;;30.37;36.01;100938.41;1736763;82;20993;-83
2021/07/09 09:58:19;;;;;;;13.20;4.20;;;;;;;30.51;35.84;100939.53;1750197;82;21657;-83
2021/07/09 10:00:47;;;;;;;6.08;3.25;;;;;;;30.68;35.05;100941.82;1732151;80;21401;-83
2021/07/09 10:03:14;;;;;;;12.75;3.12;;;;;;;30.73;33.98;100938.68;1736864;82;21048;-83
2021/07/09 10:05:43;;;;;;;8.98;4.00;;;;;;;30.71;35.15;100942.19;1720086;82;21024;-84
2021/07/09 10:08:16;;;;;;;12.10;3.70;;;;;;;30.75;34.96;100936.53;1720282;82;21040;-84
2021/07/09 10:10:44;;;;;;;8.30;3.40;;;;;;;30.85;35.53;100936.45;1720592;82;21526;-83
2021/07/09 10:13:16;;;;;;;14.65;3.67;;;;;;;30.86;34.73;100944.92;1736805;82;21388;-83
2021/07/09 10:15:45;;;;;;;4.60;2.90;;;;;;;30.89;34.97;100941.19;1720144;83;21489;-84
2021/07/09 10:18:13;;;;;;;5.10;3.10;;;;;;;31.02;34.54;100930.52;1720185;83;21024;-84
2021/07/09 10:20:44;;;;;;;7.22;3.33;;;;;;;31.00;33.96;100925.85;1720297;83;20948;-84
2021/07/09 10:23:15;;;;;;;5.80;2.85;;;;;;;30.96;33.68;100926.85;1719908;83;22257;-83
2021/07/09 10:25:41;;;;;;;51.92;5.97;;;;;;;31.06;35.29;100923.49;1735710;82;21072;-84
2021/07/09 10:28:08;;;;;;;8.93;3.52;;;;;;;31.34;35.62;100924.87;1677712;84;21001;-84
2021/07/09 10:30:37;;;;;;;15.88;4.30;;;;;;;31.62;33.49;100918.53;1733676;82;20969;-84
2021/07/09 10:33:26;;;;;;;4.28;3.22;;;;;;;31.77;33.03;100922.63;1715483;82;21036;-84
2021/07/09 10:35:53;;;;;;;4.17;3.25;;;;;;;31.87;33.48;100923.62;1691948;82;21897;-84
2021/07/09 10:38:22;;;;;;;7.53;3.40;;;;;;;32.04;33.18;100928.22;1718608;82;21028;-80
2021/07/09 10:40:50;;;;;;;5.60;3.25;;;;;;;32.24;33.22;100918.97;1722396;82;21096;-79
2021/07/09 10:43:17;;;;;;;6.08;3.37;;;;;;;32.50;33.22;100917.96;1712563;82;21040;-79
2021/07/09 10:45:45;;;;;;;5.53;3.52;;;;;;;32.72;32.38;100920.17;1715573;82;21076;-81
2021/07/09 10:48:16;;;;;;;11.73;3.50;;;;;;;32.86;31.20;100913.25;1722740;82;22502;-77
2021/07/09 10:50:46;;;;;;;6.67;3.67;;;;;;;32.84;30.87;100908.58;1713186;82;21013;-78
2021/07/09 10:53:18;;;;;;;145.17;8.15;;;;;;;32.85;30.72;100908.86;1707161;82;21024;-78
2021/07/09 10:56:09;;;;;;;8.13;3.60;;;;;;;32.86;30.51;100903.67;1703355;82;22107;-76
2021/07/09 10:58:42;;;;;;;4.05;3.15;;;;;;;32.83;29.34;100908.30;1689644;83;21079;-78
2021/07/09 11:01:16;;;;;;;7.67;3.60;;;;;;;32.61;29.03;100897.31;1722749;82;21848;-76
2021/07/09 11:03:57;;;;;;;9.50;4.62;;;;;;;32.58;30.15;100898.37;1717644;82;20949;-76
2021/07/09 11:06:37;;;;;;;8.43;3.40;;;;;;;32.63;30.89;100898.45;1705040;84;21039;-78
2021/07/09 11:09:06;;;;;;;4.08;3.45;;;;;;;32.79;30.51;100886.59;1705282;82;21036;-78
2021/07/09 11:11:36;;;;;;;11.18;3.72;;;;;;;32.88;30.06;100888.36;1710503;82;21048;-80
2021/07/09 11:14:06;;;;;;;32.28;4.97;;;;;;;32.96;30.80;100885.17;1704940;84;22477;-81
2021/07/09 11:16:39;;;;;;;8.00;3.80;;;;;;;33.08;30.90;100882.27;1722300;82;20993;-78
2021/07/09 11:19:13;;;;;;;102.55;7.22;;;;;;;33.16;30.38;100879.89;1735754;82;20978;-80
2021/07/09 11:21:44;;;;;;;30.12;4.90;;;;;;;33.12;30.78;100875.21;1707359;82;21521;-80
2021/07/09 11:24:18;;;;;;;339.08;23.38;;;;;;;33.26;30.71;100873.14;1710300;83;21997;-79
2021/07/09 11:26:48;;;;;;;6.60;3.77;;;;;;;33.38;30.41;100870.25;1720410;82;21853;-80
2021/07/09 11:29:20;;;;;;;4.65;3.50;;;;;;;33.48;29.49;100868.97;1720108;83;20870;-79